sensor_id;sensor_type;location;lat;lon;timestamp;pressure;altitude;pressure_sealevel;temperature;humidity
64340;BME280;63709;53.258;-8.814;2024-03-02T00:00:05;99714.88;;;7.69;100.00
64340;BME280;63709;53.258;-8.814;2024-03-02T00:02:45;99715.72;;;7.59;100.00
64340;BME280;63709;53.258;-8.814;2024-03-02T00:05:11;99715.09;;;7.66;100.00
64340;BME280;63709;53.258;-8.814;2024-03-02T00:07:37;99713.09;;;7.47;100.00
64340;BME280;63709;53.258;-8.814;2024-03-02T00:10:05;99715.63;;;7.60;100.00
64340;BME280;63709;53.258;-8.814;2024-03-02T00:12:33;99717.19;;;7.51;100.00
64340;BME280;63709;53.258;-8.814;2024-03-02T00:14:58;99714.78;;;7.48;100.00
64340;BME280;63709;53.258;-8.814;2024-03-02T00:17:27;99719.34;;;7.58;100.00
64340;BME280;63709;53.258;-8.814;2024-03-02T00:19:54;99720.06;;;7.60;100.00
64340;BME280;63709;53.258;-8.814;2024-03-02T00:22:20;99719.72;;;7.53;100.00
64340;BME280;63709;53.258;-8.814;2024-03-02T00:24:45;99725.50;;;7.58;100.00
64340;BME280;63709;53.258;-8.814;2024-03-02T00:27:10;99725.13;;;7.63;100.00
64340;BME280;63709;53.258;-8.814;2024-03-02T00:29:38;99729.72;;;7.72;100.00
64340;BME280;63709;53.258;-8.814;2024-03-02T00:32:06;99725.50;;;7.58;100.00
64340;BME280;63709;53.258;-8.814;2024-03-02T00:34:35;99725.75;;;7.55;100.00
64340;BME280;63709;53.258;-8.814;2024-03-02T00:37:01;99734.91;;;7.62;100.00
64340;BME280;63709;53.258;-8.814;2024-03-02T00:39:26;99733.47;;;7.58;100.00
64340;BME280;63709;53.258;-8.814;2024-03-02T00:41:51;99735.78;;;7.51;100.00
64340;BME280;63709;53.258;-8.814;2024-03-02T00:44:16;99733.84;;;7.65;100.00
64340;BME280;63709;53.258;-8.814;2024-03-02T00:46:45;99727.69;;;7.64;100.00
64340;BME280;63709;53.258;-8.814;2024-03-02T00:51:35;99731.91;;;7.56;100.00
64340;BME280;63709;53.258;-8.814;2024-03-02T00:54:03;99736.34;;;7.66;100.00
64340;BME280;63709;53.258;-8.814;2024-03-02T00:56:29;99729.38;;;7.54;100.00
64340;BME280;63709;53.258;-8.814;2024-03-02T00:58:54;99734.31;;;7.59;100.00
64340;BME280;63709;53.258;-8.814;2024-03-02T01:01:20;99741.81;;;7.54;100.00
64340;BME280;63709;53.258;-8.814;2024-03-02T01:03:45;99729.59;;;7.62;100.00
64340;BME280;63709;53.258;-8.814;2024-03-02T01:06:10;99729.47;;;7.64;100.00
64340;BME280;63709;53.258;-8.814;2024-03-02T01:08:36;99740.25;;;7.51;100.00
64340;BME280;63709;53.258;-8.814;2024-03-02T01:11:02;99738.56;;;7.39;100.00
64340;BME280;63709;53.258;-8.814;2024-03-02T01:13:27;99734.94;;;7.51;100.00
64340;BME280;63709;53.258;-8.814;2024-03-02T01:15:53;99739.66;;;7.36;100.00
64340;BME280;63709;53.258;-8.814;2024-03-02T01:18:18;99735.16;;;7.48;100.00
64340;BME280;63709;53.258;-8.814;2024-03-02T01:20:44;99734.69;;;7.43;100.00
64340;BME280;63709;53.258;-8.814;2024-03-02T01:23:09;99735.31;;;7.35;100.00
64340;BME280;63709;53.258;-8.814;2024-03-02T01:25:34;99735.06;;;7.38;100.00
64340;BME280;63709;53.258;-8.814;2024-03-02T01:28:00;99736.75;;;7.39;100.00
64340;BME280;63709;53.258;-8.814;2024-03-02T01:30:26;99744.94;;;7.36;100.00
64340;BME280;63709;53.258;-8.814;2024-03-02T01:32:51;99740.72;;;7.45;100.00
64340;BME280;63709;53.258;-8.814;2024-03-02T01:35:16;99740.38;;;7.49;100.00
64340;BME280;63709;53.258;-8.814;2024-03-02T01:37:41;99739.63;;;7.47;100.00
64340;BME280;63709;53.258;-8.814;2024-03-02T01:40:07;99749.19;;;7.39;100.00
64340;BME280;63709;53.258;-8.814;2024-03-02T01:42:37;99746.28;;;7.31;100.00
64340;BME280;63709;53.258;-8.814;2024-03-02T01:45:06;99745.69;;;7.27;100.00
64340;BME280;63709;53.258;-8.814;2024-03-02T01:47:32;99738.44;;;7.29;100.00
64340;BME280;63709;53.258;-8.814;2024-03-02T01:49:57;99744.72;;;7.39;100.00
64340;BME280;63709;53.258;-8.814;2024-03-02T01:52:23;99747.00;;;7.21;100.00
64340;BME280;63709;53.258;-8.814;2024-03-02T01:54:48;99741.94;;;7.30;100.00
64340;BME280;63709;53.258;-8.814;2024-03-02T01:57:13;99746.63;;;7.15;100.00
64340;BME280;63709;53.258;-8.814;2024-03-02T01:59:39;99746.16;;;7.10;100.00
64340;BME280;63709;53.258;-8.814;2024-03-02T02:02:04;99740.72;;;7.11;100.00
64340;BME280;63709;53.258;-8.814;2024-03-02T02:04:29;99738.56;;;7.16;100.00
64340;BME280;63709;53.258;-8.814;2024-03-02T02:06:55;99733.88;;;7.20;100.00
64340;BME280;63709;53.258;-8.814;2024-03-02T02:09:21;99742.91;;;7.06;100.00
64340;BME280;63709;53.258;-8.814;2024-03-02T02:11:46;99735.31;;;7.13;100.00
64340;BME280;63709;53.258;-8.814;2024-03-02T02:14:12;99727.94;;;7.05;100.00
64340;BME280;63709;53.258;-8.814;2024-03-02T02:16:37;99724.69;;;7.01;100.00
64340;BME280;63709;53.258;-8.814;2024-03-02T02:19:02;99731.69;;;7.02;100.00
64340;BME280;63709;53.258;-8.814;2024-03-02T02:21:28;99730.94;;;7.00;100.00
64340;BME280;63709;53.258;-8.814;2024-03-02T02:23:53;99732.91;;;7.10;100.00
64340;BME280;63709;53.258;-8.814;2024-03-02T02:26:18;99739.41;;;6.94;100.00
64340;BME280;63709;53.258;-8.814;2024-03-02T02:28:44;99737.94;;;6.90;100.00
64340;BME280;63709;53.258;-8.814;2024-03-02T02:31:15;99737.94;;;6.90;100.00
64340;BME280;63709;53.258;-8.814;2024-03-02T02:33:40;99738.19;;;6.98;100.00
64340;BME280;63709;53.258;-8.814;2024-03-02T02:36:06;99738.44;;;7.07;100.00
64340;BME280;63709;53.258;-8.814;2024-03-02T02:38:32;99738.91;;;7.12;100.00
64340;BME280;63709;53.258;-8.814;2024-03-02T02:40:58;99738.66;;;7.15;100.00
64340;BME280;63709;53.258;-8.814;2024-03-02T02:43:23;99732.88;;;6.98;100.00
64340;BME280;63709;53.258;-8.814;2024-03-02T02:45:48;99729.16;;;7.12;100.00
64340;BME280;63709;53.258;-8.814;2024-03-02T02:48:14;99729.75;;;7.05;100.00
64340;BME280;63709;53.258;-8.814;2024-03-02T02:50:39;99737.44;;;6.96;100.00
64340;BME280;63709;53.258;-8.814;2024-03-02T02:53:05;99734.94;;;6.95;100.00
64340;BME280;63709;53.258;-8.814;2024-03-02T02:55:31;99737.13;;;7.01;100.00
64340;BME280;63709;53.258;-8.814;2024-03-02T02:57:56;99740.09;;;6.96;100.00
64340;BME280;63709;53.258;-8.814;2024-03-02T03:00:21;99739.16;;;6.97;100.00
64340;BME280;63709;53.258;-8.814;2024-03-02T03:02:48;99745.78;;;7.03;100.00
64340;BME280;63709;53.258;-8.814;2024-03-02T03:05:14;99751.00;;;7.05;100.00
64340;BME280;63709;53.258;-8.814;2024-03-02T03:07:40;99745.31;;;6.98;100.00
64340;BME280;63709;53.258;-8.814;2024-03-02T03:10:06;99751.81;;;6.94;100.00
64340;BME280;63709;53.258;-8.814;2024-03-02T03:12:32;99749.50;;;6.89;100.00
64340;BME280;63709;53.258;-8.814;2024-03-02T03:14:57;99749.78;;;6.97;100.00
64340;BME280;63709;53.258;-8.814;2024-03-02T03:17:22;99748.44;;;7.03;100.00
64340;BME280;63709;53.258;-8.814;2024-03-02T03:19:48;99747.47;;;7.15;100.00
64340;BME280;63709;53.258;-8.814;2024-03-02T03:22:14;99751.94;;;7.03;100.00
64340;BME280;63709;53.258;-8.814;2024-03-02T03:24:39;99752.44;;;6.97;100.00
64340;BME280;63709;53.258;-8.814;2024-03-02T03:27:04;99750.63;;;7.09;100.00
64340;BME280;63709;53.258;-8.814;2024-03-02T03:29:29;99752.44;;;7.09;100.00
64340;BME280;63709;53.258;-8.814;2024-03-02T03:31:55;99747.13;;;7.20;100.00
64340;BME280;63709;53.258;-8.814;2024-03-02T03:34:20;99745.94;;;7.13;100.00
64340;BME280;63709;53.258;-8.814;2024-03-02T03:36:45;99752.16;;;7.12;100.00
64340;BME280;63709;53.258;-8.814;2024-03-02T03:39:11;99743.50;;;7.10;100.00
64340;BME280;63709;53.258;-8.814;2024-03-02T03:41:36;99762.56;;;7.15;100.00
64340;BME280;63709;53.258;-8.814;2024-03-02T03:44:01;99755.94;;;7.09;100.00
64340;BME280;63709;53.258;-8.814;2024-03-02T03:46:26;99753.50;;;7.06;100.00
64340;BME280;63709;53.258;-8.814;2024-03-02T03:48:52;99750.50;;;7.22;100.00
64340;BME280;63709;53.258;-8.814;2024-03-02T03:51:17;99758.94;;;7.05;100.00
64340;BME280;63709;53.258;-8.814;2024-03-02T03:53:42;99757.97;;;7.17;100.00
64340;BME280;63709;53.258;-8.814;2024-03-02T03:56:08;99762.19;;;7.08;100.00
64340;BME280;63709;53.258;-8.814;2024-03-02T03:58:33;99761.09;;;7.11;100.00
64340;BME280;63709;53.258;-8.814;2024-03-02T04:00:58;99755.19;;;7.18;100.00
64340;BME280;63709;53.258;-8.814;2024-03-02T04:03:23;99761.63;;;7.27;100.00
64340;BME280;63709;53.258;-8.814;2024-03-02T04:05:49;99754.97;;;7.33;100.00
64340;BME280;63709;53.258;-8.814;2024-03-02T04:08:15;99750.41;;;7.23;100.00
64340;BME280;63709;53.258;-8.814;2024-03-02T04:10:40;99757.63;;;7.21;100.00
64340;BME280;63709;53.258;-8.814;2024-03-02T04:13:07;99766.19;;;7.14;100.00
64340;BME280;63709;53.258;-8.814;2024-03-02T04:15:32;99755.09;;;7.20;100.00
64340;BME280;63709;53.258;-8.814;2024-03-02T04:17:57;99758.47;;;7.22;100.00
64340;BME280;63709;53.258;-8.814;2024-03-02T04:20:23;99758.59;;;7.20;100.00
64340;BME280;63709;53.258;-8.814;2024-03-02T04:22:48;99761.94;;;7.22;100.00
64340;BME280;63709;53.258;-8.814;2024-03-02T04:25:13;99764.97;;;7.29;100.00
64340;BME280;63709;53.258;-8.814;2024-03-02T04:27:39;99758.34;;;7.12;100.00
64340;BME280;63709;53.258;-8.814;2024-03-02T04:30:04;99756.91;;;7.19;100.00
64340;BME280;63709;53.258;-8.814;2024-03-02T04:32:30;99753.03;;;7.12;100.00
64340;BME280;63709;53.258;-8.814;2024-03-02T04:34:56;99767.16;;;7.24;100.00
64340;BME280;63709;53.258;-8.814;2024-03-02T04:37:21;99762.31;;;7.29;100.00
64340;BME280;63709;53.258;-8.814;2024-03-02T04:39:47;99767.38;;;7.21;100.00
64340;BME280;63709;53.258;-8.814;2024-03-02T04:42:12;99768.00;;;7.36;100.00
64340;BME280;63709;53.258;-8.814;2024-03-02T04:44:37;99766.31;;;7.23;100.00
64340;BME280;63709;53.258;-8.814;2024-03-02T04:47:03;99767.88;;;7.37;100.00
64340;BME280;63709;53.258;-8.814;2024-03-02T04:49:28;99776.56;;;7.39;100.00
64340;BME280;63709;53.258;-8.814;2024-03-02T04:51:55;99776.56;;;7.39;100.00
64340;BME280;63709;53.258;-8.814;2024-03-02T04:54:20;99777.03;;;7.44;100.00
64340;BME280;63709;53.258;-8.814;2024-03-02T04:56:45;99779.69;;;7.22;100.00
64340;BME280;63709;53.258;-8.814;2024-03-02T04:59:15;99783.78;;;7.37;100.00
64340;BME280;63709;53.258;-8.814;2024-03-02T05:01:40;99785.25;;;7.41;100.00
64340;BME280;63709;53.258;-8.814;2024-03-02T05:04:06;99794.91;;;7.42;100.00
64340;BME280;63709;53.258;-8.814;2024-03-02T05:06:31;99789.84;;;7.39;100.00
64340;BME280;63709;53.258;-8.814;2024-03-02T05:08:56;99789.09;;;7.48;100.00
64340;BME280;63709;53.258;-8.814;2024-03-02T05:11:22;99787.41;;;7.47;100.00
64340;BME280;63709;53.258;-8.814;2024-03-02T05:14:05;99794.31;;;7.50;100.00
64340;BME280;63709;53.258;-8.814;2024-03-02T05:16:34;99791.75;;;7.48;100.00
64340;BME280;63709;53.258;-8.814;2024-03-02T05:19:00;99794.19;;;7.51;100.00
64340;BME280;63709;53.258;-8.814;2024-03-02T05:21:25;99800.47;;;7.50;100.00
64340;BME280;63709;53.258;-8.814;2024-03-02T05:23:51;99803.13;;;7.50;100.00
64340;BME280;63709;53.258;-8.814;2024-03-02T05:26:16;99796.59;;;7.55;100.00
64340;BME280;63709;53.258;-8.814;2024-03-02T05:28:42;99811.06;;;7.39;100.00
64340;BME280;63709;53.258;-8.814;2024-03-02T05:31:09;99811.69;;;7.54;100.00
64340;BME280;63709;53.258;-8.814;2024-03-02T05:33:36;99806.38;;;7.54;100.00
64340;BME280;63709;53.258;-8.814;2024-03-02T05:36:02;99806.47;;;7.64;100.00
64340;BME280;63709;53.258;-8.814;2024-03-02T05:38:27;99816.16;;;7.54;100.00
64340;BME280;63709;53.258;-8.814;2024-03-02T05:40:53;99807.81;;;7.58;100.00
64340;BME280;63709;53.258;-8.814;2024-03-02T05:43:18;99818.56;;;7.57;100.00
64340;BME280;63709;53.258;-8.814;2024-03-02T05:45:45;99820.63;;;7.53;100.00
64340;BME280;63709;53.258;-8.814;2024-03-02T05:48:10;99815.41;;;7.63;100.00
64340;BME280;63709;53.258;-8.814;2024-03-02T05:50:35;99821.69;;;7.62;100.00
64340;BME280;63709;53.258;-8.814;2024-03-02T05:53:00;99827.13;;;7.71;100.00
64340;BME280;63709;53.258;-8.814;2024-03-02T05:55:26;99822.41;;;7.64;100.00
64340;BME280;63709;53.258;-8.814;2024-03-02T05:57:51;99821.09;;;7.69;100.00
64340;BME280;63709;53.258;-8.814;2024-03-02T06:00:31;99823.16;;;7.66;100.00
64340;BME280;63709;53.258;-8.814;2024-03-02T06:02:57;99828.22;;;7.69;100.00
64340;BME280;63709;53.258;-8.814;2024-03-02T06:05:22;99822.41;;;7.64;100.00
64340;BME280;63709;53.258;-8.814;2024-03-02T06:07:48;99825.56;;;7.58;100.00
64340;BME280;63709;53.258;-8.814;2024-03-02T06:10:13;99826.28;;;7.60;100.00
64340;BME280;63709;53.258;-8.814;2024-03-02T06:12:39;99836.66;;;7.40;100.00
64340;BME280;63709;53.258;-8.814;2024-03-02T06:15:05;99837.03;;;7.47;100.00
64340;BME280;63709;53.258;-8.814;2024-03-02T06:17:30;99839.06;;;7.43;100.00
64340;BME280;63709;53.258;-8.814;2024-03-02T06:19:55;99842.81;;;7.41;100.00
64340;BME280;63709;53.258;-8.814;2024-03-02T06:22:21;99843.38;;;7.22;100.00
64340;BME280;63709;53.258;-8.814;2024-03-02T06:24:48;99845.56;;;7.28;100.00
64340;BME280;63709;53.258;-8.814;2024-03-02T06:27:13;99850.88;;;7.28;100.00
64340;BME280;63709;53.258;-8.814;2024-03-02T06:29:38;99847.13;;;7.19;100.00
64340;BME280;63709;53.258;-8.814;2024-03-02T06:32:04;99854.22;;;7.19;100.00
64340;BME280;63709;53.258;-8.814;2024-03-02T06:34:29;99846.28;;;7.30;100.00
64340;BME280;63709;53.258;-8.814;2024-03-02T06:36:54;99853.31;;;7.31;100.00
64340;BME280;63709;53.258;-8.814;2024-03-02T06:39:20;99860.66;;;7.27;100.00
64340;BME280;63709;53.258;-8.814;2024-03-02T06:41:45;99854.75;;;7.35;100.00
64340;BME280;63709;53.258;-8.814;2024-03-02T06:44:12;99856.31;;;7.38;100.00
64340;BME280;63709;53.258;-8.814;2024-03-02T06:46:37;99855.19;;;7.18;100.00
64340;BME280;63709;53.258;-8.814;2024-03-02T06:49:03;99851.47;;;7.20;100.00
64340;BME280;63709;53.258;-8.814;2024-03-02T06:51:29;99852.78;;;7.26;100.00
64340;BME280;63709;53.258;-8.814;2024-03-02T06:53:54;99852.91;;;7.24;100.00
64340;BME280;63709;53.258;-8.814;2024-03-02T06:56:20;99860.41;;;7.19;100.00
64340;BME280;63709;53.258;-8.814;2024-03-02T06:58:45;99867.78;;;7.27;100.00
64340;BME280;63709;53.258;-8.814;2024-03-02T07:01:11;99865.22;;;7.25;100.00
64340;BME280;63709;53.258;-8.814;2024-03-02T07:03:36;99864.53;;;7.35;100.00
64340;BME280;63709;53.258;-8.814;2024-03-02T07:06:02;99874.16;;;7.36;100.00
64340;BME280;63709;53.258;-8.814;2024-03-02T07:08:28;99868.72;;;7.37;100.00
64340;BME280;63709;53.258;-8.814;2024-03-02T07:10:53;99871.28;;;7.39;100.00
64340;BME280;63709;53.258;-8.814;2024-03-02T07:13:18;99879.50;;;7.47;100.00
64340;BME280;63709;53.258;-8.814;2024-03-02T07:15:44;99878.16;;;7.52;100.00
64340;BME280;63709;53.258;-8.814;2024-03-02T07:18:35;99881.31;;;7.58;100.00
64340;BME280;63709;53.258;-8.814;2024-03-02T07:21:05;99884.47;;;7.63;100.00
64340;BME280;63709;53.258;-8.814;2024-03-02T07:23:31;99877.22;;;7.65;100.00
64340;BME280;63709;53.258;-8.814;2024-03-02T07:25:57;99887.00;;;7.53;100.00
64340;BME280;63709;53.258;-8.814;2024-03-02T07:28:22;99882.31;;;7.68;100.00
64340;BME280;63709;53.258;-8.814;2024-03-02T07:30:58;99885.19;;;7.76;100.00
64340;BME280;63709;53.258;-8.814;2024-03-02T07:33:23;99886.75;;;7.79;100.00
64340;BME280;63709;53.258;-8.814;2024-03-02T07:35:49;99888.84;;;7.75;100.00
64340;BME280;63709;53.258;-8.814;2024-03-02T07:38:14;99887.63;;;7.79;100.00
64340;BME280;63709;53.258;-8.814;2024-03-02T07:40:39;99887.84;;;7.87;100.00
64340;BME280;63709;53.258;-8.814;2024-03-02T07:43:05;99901.63;;;7.92;100.00
64340;BME280;63709;53.258;-8.814;2024-03-02T07:45:30;99900.31;;;7.98;100.00
64340;BME280;63709;53.258;-8.814;2024-03-02T07:47:56;99906.09;;;8.03;100.00
64340;BME280;63709;53.258;-8.814;2024-03-02T07:50:21;99902.22;;;8.07;100.00
64340;BME280;63709;53.258;-8.814;2024-03-02T07:52:46;99907.75;;;8.15;100.00
64340;BME280;63709;53.258;-8.814;2024-03-02T07:55:12;99896.41;;;8.24;100.00
64340;BME280;63709;53.258;-8.814;2024-03-02T07:57:37;99905.00;;;8.17;100.00
64340;BME280;63709;53.258;-8.814;2024-03-02T08:00:02;99900.66;;;8.05;100.00
64340;BME280;63709;53.258;-8.814;2024-03-02T08:02:28;99905.34;;;8.23;100.00
64340;BME280;63709;53.258;-8.814;2024-03-02T08:04:53;99910.06;;;8.31;100.00
64340;BME280;63709;53.258;-8.814;2024-03-02T08:07:18;99914.66;;;8.18;100.00
64340;BME280;63709;53.258;-8.814;2024-03-02T08:09:44;99908.97;;;8.22;100.00
64340;BME280;63709;53.258;-8.814;2024-03-02T08:12:09;99912.75;;;8.09;100.00
64340;BME280;63709;53.258;-8.814;2024-03-02T08:14:34;99913.66;;;8.30;100.00
64340;BME280;63709;53.258;-8.814;2024-03-02T08:16:59;99914.16;;;8.35;100.00
64340;BME280;63709;53.258;-8.814;2024-03-02T08:19:26;99916.06;;;8.33;100.00
64340;BME280;63709;53.258;-8.814;2024-03-02T08:21:52;99920.94;;;8.39;100.00
64340;BME280;63709;53.258;-8.814;2024-03-02T08:24:17;99919.47;;;8.35;100.00
64340;BME280;63709;53.258;-8.814;2024-03-02T08:26:42;99914.66;;;8.40;100.00
64340;BME280;63709;53.258;-8.814;2024-03-02T08:29:07;99927.56;;;8.45;100.00
64340;BME280;63709;53.258;-8.814;2024-03-02T08:31:33;99915.38;;;8.42;100.00
64340;BME280;63709;53.258;-8.814;2024-03-02T08:33:58;99914.53;;;8.53;100.00
64340;BME280;63709;53.258;-8.814;2024-03-02T08:36:24;99921.63;;;8.53;100.00
64340;BME280;63709;53.258;-8.814;2024-03-02T08:38:49;99928.66;;;8.54;100.00
64340;BME280;63709;53.258;-8.814;2024-03-02T08:41:15;99934.81;;;8.54;100.00
64340;BME280;63709;53.258;-8.814;2024-03-02T08:43:41;99940.75;;;8.58;100.00
64340;BME280;63709;53.258;-8.814;2024-03-02T08:46:07;99939.66;;;8.60;100.00
64340;BME280;63709;53.258;-8.814;2024-03-02T08:48:32;99937.84;;;8.61;100.00
64340;BME280;63709;53.258;-8.814;2024-03-02T08:50:57;99933.22;;;8.63;100.00
64340;BME280;63709;53.258;-8.814;2024-03-02T08:53:23;99942.41;;;8.59;100.00
64340;BME280;63709;53.258;-8.814;2024-03-02T08:55:48;99950.59;;;8.78;100.00
64340;BME280;63709;53.258;-8.814;2024-03-02T08:58:14;99945.28;;;8.78;100.00
64340;BME280;63709;53.258;-8.814;2024-03-02T09:00:39;99937.22;;;8.68;100.00
64340;BME280;63709;53.258;-8.814;2024-03-02T09:03:05;99946.00;;;8.80;100.00
64340;BME280;63709;53.258;-8.814;2024-03-02T09:05:30;99942.25;;;8.83;100.00
64340;BME280;63709;53.258;-8.814;2024-03-02T09:07:55;99935.97;;;8.84;100.00
64340;BME280;63709;53.258;-8.814;2024-03-02T09:10:21;99941.31;;;9.05;100.00
64340;BME280;63709;53.258;-8.814;2024-03-02T09:12:46;99945.00;;;8.92;100.00
64340;BME280;63709;53.258;-8.814;2024-03-02T09:15:11;99945.69;;;9.06;100.00
64340;BME280;63709;53.258;-8.814;2024-03-02T09:17:37;99950.66;;;9.31;100.00
64340;BME280;63709;53.258;-8.814;2024-03-02T09:20:02;99949.13;;;9.17;100.00
64340;BME280;63709;53.258;-8.814;2024-03-02T09:22:29;99950.16;;;9.26;100.00
64340;BME280;63709;53.258;-8.814;2024-03-02T09:24:54;99944.56;;;9.08;100.00
64340;BME280;63709;53.258;-8.814;2024-03-02T09:27:20;99940.09;;;9.09;100.00
64340;BME280;63709;53.258;-8.814;2024-03-02T09:29:45;99941.28;;;9.37;100.00
64340;BME280;63709;53.258;-8.814;2024-03-02T09:32:12;99945.47;;;9.51;100.00
64340;BME280;63709;53.258;-8.814;2024-03-02T09:34:37;99955.13;;;9.52;100.00
64340;BME280;63709;53.258;-8.814;2024-03-02T09:37:02;99955.13;;;9.73;100.00
64340;BME280;63709;53.258;-8.814;2024-03-02T09:39:29;99953.63;;;9.80;100.00
64340;BME280;63709;53.258;-8.814;2024-03-02T09:41:54;99951.34;;;9.75;100.00
64340;BME280;63709;53.258;-8.814;2024-03-02T09:44:20;99949.41;;;9.77;100.00
64340;BME280;63709;53.258;-8.814;2024-03-02T09:46:48;99947.56;;;9.99;100.00
64340;BME280;63709;53.258;-8.814;2024-03-02T09:49:14;99956.63;;;9.86;100.00
64340;BME280;63709;53.258;-8.814;2024-03-02T09:51:39;99957.66;;;9.74;100.00
64340;BME280;63709;53.258;-8.814;2024-03-02T09:54:06;99950.00;;;9.81;100.00
64340;BME280;63709;53.258;-8.814;2024-03-02T09:56:32;99945.00;;;9.66;100.00
64340;BME280;63709;53.258;-8.814;2024-03-02T09:58:57;99948.97;;;9.72;100.00
64340;BME280;63709;53.258;-8.814;2024-03-02T10:01:22;99947.97;;;9.73;100.00
64340;BME280;63709;53.258;-8.814;2024-03-02T10:03:48;99953.19;;;9.54;100.00
64340;BME280;63709;53.258;-8.814;2024-03-02T10:06:27;99955.31;;;9.60;100.00
64340;BME280;63709;53.258;-8.814;2024-03-02T10:08:53;99950.78;;;9.51;100.00
64340;BME280;63709;53.258;-8.814;2024-03-02T10:16:37;99953.97;;;9.24;100.00
64340;BME280;63709;53.258;-8.814;2024-03-02T10:19:21;99952.25;;;9.23;100.00
64340;BME280;63709;53.258;-8.814;2024-03-02T10:21:47;99955.38;;;9.28;100.00
64340;BME280;63709;53.258;-8.814;2024-03-02T10:24:12;99959.47;;;9.32;100.00
64340;BME280;63709;53.258;-8.814;2024-03-02T10:26:38;99968.38;;;9.21;100.00
64340;BME280;63709;53.258;-8.814;2024-03-02T10:29:03;99968.63;;;9.18;100.00
64340;BME280;63709;53.258;-8.814;2024-03-02T10:31:28;99966.72;;;9.09;100.00
64340;BME280;63709;53.258;-8.814;2024-03-02T10:34:02;99968.19;;;9.02;100.00
64340;BME280;63709;53.258;-8.814;2024-03-02T10:36:28;99979.94;;;9.31;100.00
64340;BME280;63709;53.258;-8.814;2024-03-02T10:38:56;99978.47;;;9.38;100.00
64340;BME280;63709;53.258;-8.814;2024-03-02T10:41:23;99971.41;;;9.37;100.00
64340;BME280;63709;53.258;-8.814;2024-03-02T10:43:48;99970.97;;;9.32;100.00
64340;BME280;63709;53.258;-8.814;2024-03-02T10:46:14;99968.06;;;9.35;100.00
64340;BME280;63709;53.258;-8.814;2024-03-02T10:48:41;99961.34;;;9.41;100.00
64340;BME280;63709;53.258;-8.814;2024-03-02T10:51:10;99963.25;;;9.50;100.00
64340;BME280;63709;53.258;-8.814;2024-03-02T10:53:35;99955.28;;;9.50;100.00
64340;BME280;63709;53.258;-8.814;2024-03-02T10:56:01;99961.31;;;9.52;100.00
64340;BME280;63709;53.258;-8.814;2024-03-02T10:58:31;99963.38;;;9.49;100.00
64340;BME280;63709;53.258;-8.814;2024-03-02T11:00:57;99971.16;;;9.40;100.00
64340;BME280;63709;53.258;-8.814;2024-03-02T11:03:25;99966.69;;;9.20;100.00
64340;BME280;63709;53.258;-8.814;2024-03-02T11:05:50;99977.41;;;9.30;100.00
64340;BME280;63709;53.258;-8.814;2024-03-02T11:08:17;99963.38;;;9.49;100.00
64340;BME280;63709;53.258;-8.814;2024-03-02T11:10:51;99953.25;;;9.42;100.00
64340;BME280;63709;53.258;-8.814;2024-03-02T11:13:24;99950.38;;;9.55;100.00
64340;BME280;63709;53.258;-8.814;2024-03-02T11:15:53;99948.09;;;9.92;100.00
64340;BME280;63709;53.258;-8.814;2024-03-02T11:18:20;99942.31;;;9.87;100.00
64340;BME280;63709;53.258;-8.814;2024-03-02T11:20:46;99945.69;;;10.20;100.00
64340;BME280;63709;53.258;-8.814;2024-03-02T11:23:11;99941.66;;;10.26;100.00
64340;BME280;63709;53.258;-8.814;2024-03-02T11:25:37;99945.78;;;10.39;100.00
64340;BME280;63709;53.258;-8.814;2024-03-02T11:28:07;99950.88;;;10.43;100.00
64340;BME280;63709;53.258;-8.814;2024-03-02T11:33:06;99945.88;;;10.78;100.00
64340;BME280;63709;53.258;-8.814;2024-03-02T11:35:38;99940.00;;;10.84;100.00
64340;BME280;63709;53.258;-8.814;2024-03-02T11:38:03;99935.53;;;10.95;100.00
64340;BME280;63709;53.258;-8.814;2024-03-02T11:40:29;99933.69;;;11.05;100.00
64340;BME280;63709;53.258;-8.814;2024-03-02T11:42:55;99927.25;;;10.98;100.00
64340;BME280;63709;53.258;-8.814;2024-03-02T11:45:26;99920.06;;;11.18;100.00
64340;BME280;63709;53.258;-8.814;2024-03-02T11:47:56;99921.84;;;11.56;100.00
64340;BME280;63709;53.258;-8.814;2024-03-02T11:50:34;99914.25;;;11.42;100.00
64340;BME280;63709;53.258;-8.814;2024-03-02T11:53:02;99913.94;;;11.64;100.00
64340;BME280;63709;53.258;-8.814;2024-03-02T11:55:31;99919.13;;;11.85;100.00
64340;BME280;63709;53.258;-8.814;2024-03-02T11:57:56;99919.53;;;11.80;100.00
64340;BME280;63709;53.258;-8.814;2024-03-02T12:00:22;99928.69;;;11.78;100.00
64340;BME280;63709;53.258;-8.814;2024-03-02T12:03:03;99922.94;;;11.73;100.00
64340;BME280;63709;53.258;-8.814;2024-03-02T12:05:29;99928.25;;;11.82;100.00
64340;BME280;63709;53.258;-8.814;2024-03-02T12:07:55;99920.69;;;11.88;100.00
64340;BME280;63709;53.258;-8.814;2024-03-02T12:10:21;99910.88;;;11.59;100.00
64340;BME280;63709;53.258;-8.814;2024-03-02T12:12:46;99918.69;;;11.80;100.00
64340;BME280;63709;53.258;-8.814;2024-03-02T12:15:11;99924.38;;;11.57;100.00
64340;BME280;63709;53.258;-8.814;2024-03-02T12:17:36;99922.28;;;11.51;100.00
64340;BME280;63709;53.258;-8.814;2024-03-02T12:20:04;99924.13;;;11.31;100.00
64340;BME280;63709;53.258;-8.814;2024-03-02T12:22:29;99919.91;;;11.19;100.00
64340;BME280;63709;53.258;-8.814;2024-03-02T12:24:54;99916.97;;;11.03;100.00
64340;BME280;63709;53.258;-8.814;2024-03-02T12:27:20;99924.84;;;11.14;100.00
64340;BME280;63709;53.258;-8.814;2024-03-02T12:29:46;99924.44;;;11.09;100.00
64340;BME280;63709;53.258;-8.814;2024-03-02T12:32:11;99927.50;;;11.14;100.00
64340;BME280;63709;53.258;-8.814;2024-03-02T12:34:37;99907.84;;;11.05;100.00
64340;BME280;63709;53.258;-8.814;2024-03-02T12:37:03;99920.06;;;10.98;100.00
64340;BME280;63709;53.258;-8.814;2024-03-02T12:39:28;99928.47;;;10.84;100.00
64340;BME280;63709;53.258;-8.814;2024-03-02T12:41:55;99921.56;;;10.62;100.00
64340;BME280;63709;53.258;-8.814;2024-03-02T12:44:20;99914.81;;;10.68;100.00
64340;BME280;63709;53.258;-8.814;2024-03-02T12:46:46;99915.50;;;10.60;100.00
64340;BME280;63709;53.258;-8.814;2024-03-02T12:49:12;99901.91;;;10.73;100.00
64340;BME280;63709;53.258;-8.814;2024-03-02T12:51:40;99902.63;;;10.94;100.00